Time;durP1;ratioP1;P1;durP2;ratioP2;P2;SDS_P1;SDS_P2;PMS_P1;PMS_P2;Temp;Humidity;BMP_temperature;BMP_pressure;BME280_temperature;BME280_humidity;BME280_pressure;Samples;Min_cycle;Max_cycle;Signal;HPM_P1;HPM_P2
2022/10/17 00:02:06;;;;;;;3.90;1.65;;;27.90;81.70;;;;;;5093809;28;20091;-69
2022/10/17 00:04:32;;;;;;;5.40;1.40;;;27.80;82.20;;;;;;5091715;28;20227;-70
2022/10/17 00:06:58;;;;;;;8.30;2.90;;;27.80;82.70;;;;;;5090873;28;20525;-69
2022/10/17 00:09:25;;;;;;;3.47;1.60;;;27.70;82.40;;;;;;5091747;28;20164;-70
2022/10/17 00:11:51;;;;;;;4.18;1.55;;;27.70;81.60;;;;;;5090684;28;20084;-70
2022/10/17 00:14:17;;;;;;;3.35;1.52;;;27.60;82.10;;;;;;5094633;28;20187;-68
2022/10/17 00:16:44;;;;;;;2.83;1.55;;;27.50;81.80;;;;;;5096014;28;20941;-69
2022/10/17 00:19:10;;;;;;;6.10;1.83;;;27.50;82.50;;;;;;5092590;28;20141;-68
2022/10/17 00:21:36;;;;;;;3.38;1.50;;;27.40;82.90;;;;;;5091420;28;20150;-68
2022/10/17 00:24:03;;;;;;;6.05;1.70;;;27.30;82.70;;;;;;5088805;28;20533;-69
2022/10/17 00:26:30;;;;;;;3.00;1.40;;;27.30;83.30;;;;;;5090286;28;21013;-67
2022/10/17 00:28:56;;;;;;;6.93;1.27;;;27.30;83.80;;;;;;5102921;28;20071;-69
2022/10/17 00:31:23;;;;;;;6.15;2.33;;;27.20;83.90;;;;;;5093094;28;20068;-70
2022/10/17 00:33:50;;;;;;;7.07;1.23;;;27.20;84.10;;;;;;5091386;28;20100;-69
2022/10/17 00:36:23;;;;;;;4.57;1.40;;;27.20;83.20;;;;;;5092972;28;20082;-70
2022/10/17 00:38:52;;;;;;;5.80;1.38;;;27.10;82.70;;;;;;5090843;28;20141;-69
2022/10/17 00:41:20;;;;;;;8.05;1.33;;;27.10;84.10;;;;;;5089120;28;20117;-70
2022/10/17 00:43:59;;;;;;;4.35;1.35;;;27.00;84.40;;;;;;5091918;28;20145;-68
2022/10/17 00:46:28;;;;;;;6.00;1.50;;;27.00;84.90;;;;;;5089312;28;20071;-67
2022/10/17 00:48:57;;;;;;;4.18;1.52;;;26.90;85.80;;;;;;5090254;28;20445;-68
2022/10/17 00:51:32;;;;;;;3.75;1.17;;;26.90;85.70;;;;;;5096856;28;20104;-68
2022/10/17 00:54:00;;;;;;;7.53;1.70;;;26.80;84.60;;;;;;5088848;28;20486;-69
2022/10/17 00:56:27;;;;;;;6.93;1.55;;;26.80;84.70;;;;;;5089658;28;20080;-69
2022/10/17 00:58:54;;;;;;;2.25;1.23;;;26.70;85.20;;;;;;5091095;28;20113;-69
2022/10/17 01:01:21;;;;;;;7.82;2.97;;;26.60;87.00;;;;;;5098680;28;20133;-69
2022/10/17 01:03:47;;;;;;;6.35;3.42;;;26.50;87.60;;;;;;5101367;28;20059;-67
2022/10/17 01:06:13;;;;;;;7.82;3.00;;;26.40;88.60;;;;;;5098501;28;20095;-68
2022/10/17 01:08:40;;;;;;;6.70;2.17;;;26.30;90.00;;;;;;5096539;28;20457;-68
2022/10/17 01:11:18;;;;;;;6.68;2.72;;;26.30;90.10;;;;;;5099201;28;20091;-68
2022/10/17 01:13:50;;;;;;;9.98;3.10;;;26.30;90.20;;;;;;5092747;28;20083;-71
2022/10/17 01:16:23;;;;;;;7.72;2.22;;;26.30;90.40;;;;;;5088471;28;20073;-68
2022/10/17 01:19:07;;;;;;;7.57;2.38;;;26.20;90.80;;;;;;5087390;28;20096;-69
2022/10/17 01:22:08;;;;;;;6.93;1.80;;;26.10;90.70;;;;;;5090019;28;20142;-69
2022/10/17 01:24:49;;;;;;;9.93;3.53;;;26.10;91.40;;;;;;5078263;28;20133;-69
2022/10/17 01:27:34;;;;;;;7.53;3.22;;;26.00;91.50;;;;;;5088877;28;20078;-68
2022/10/17 01:30:39;;;;;;;7.00;2.70;;;26.00;91.60;;;;;;5088975;28;20109;-68
2022/10/17 01:33:27;;;;;;;7.63;2.78;;;26.00;91.40;;;;;;5065790;28;20086;-71
2022/10/17 01:36:23;;;;;;;9.98;2.78;;;25.90;91.40;;;;;;5087738;28;20067;-69
2022/10/17 01:39:07;;;;;;;8.02;2.75;;;25.90;91.40;;;;;;5092294;28;20092;-71
2022/10/17 01:41:43;;;;;;;10.05;3.00;;;25.80;91.70;;;;;;5088925;28;20433;-69
2022/10/17 01:44:27;;;;;;;10.15;3.10;;;25.70;91.70;;;;;;5094637;28;20069;-69
2022/10/17 01:47:08;;;;;;;11.25;3.03;;;25.70;92.10;;;;;;5093923;28;20537;-69
2022/10/17 01:49:36;;;;;;;8.80;2.50;;;25.70;92.30;;;;;;5090957;28;20128;-66
2022/10/17 01:52:18;;;;;;;5.68;2.10;;;25.70;92.00;;;;;;5088596;28;20072;-68
2022/10/17 01:54:53;;;;;;;6.90;2.53;;;25.60;91.90;;;;;;5087624;28;20178;-69
2022/10/17 01:57:35;;;;;;;10.35;3.03;;;25.50;92.30;;;;;;5093165;28;20068;-68
2022/10/17 02:00:03;;;;;;;11.07;3.03;;;25.50;91.60;;;;;;5089924;28;20642;-67
2022/10/17 02:02:31;;;;;;;13.25;3.05;;;25.50;91.90;;;;;;5092186;28;20084;-69
2022/10/17 02:04:58;;;;;;;6.20;1.98;;;25.50;91.50;;;;;;5093321;28;20446;-70
2022/10/17 02:07:24;;;;;;;5.57;1.98;;;25.40;91.50;;;;;;5088548;28;20121;-68
2022/10/17 02:09:51;;;;;;;6.40;2.40;;;25.40;91.80;;;;;;5102055;28;20068;-68
2022/10/17 02:12:59;;;;;;;17.00;2.50;;;25.30;92.10;;;;;;5088402;28;20122;-68
2022/10/17 02:15:45;;;;;;;10.32;2.33;;;25.30;91.60;;;;;;5087910;28;20120;-70
2022/10/17 02:18:35;;;;;;;8.55;2.97;;;25.30;91.80;;;;;;5102321;28;20446;-68
2022/10/17 02:21:51;;;;;;;11.68;2.72;;;25.30;91.60;;;;;;5088460;28;20504;-68
2022/10/17 02:24:39;;;;;;;11.82;3.35;;;25.30;91.80;;;;;;5008640;28;20657;-69
2022/10/17 02:27:14;;;;;;;9.30;3.55;;;25.20;92.00;;;;;;5082961;28;20100;-70
2022/10/17 02:30:07;;;;;;;8.23;3.97;;;25.20;92.10;;;;;;5098272;28;20075;-69
2022/10/17 02:32:36;;;;;;;17.17;4.88;;;25.20;92.40;;;;;;5088769;28;20088;-69
2022/10/17 02:35:06;;;;;;;21.33;10.65;;;25.20;92.60;;;;;;5092306;28;20160;-69
2022/10/17 02:37:34;;;;;;;23.60;8.80;;;25.10;92.70;;;;;;5093249;28;20179;-68
2022/10/17 02:40:02;;;;;;;25.55;7.63;;;25.10;93.00;;;;;;5098212;28;20465;-68
2022/10/17 02:42:29;;;;;;;14.25;6.97;;;25.00;93.30;;;;;;5095190;28;20525;-69
2022/10/17 02:45:01;;;;;;;18.55;8.38;;;25.00;93.70;;;;;;5094413;28;20091;-67
2022/10/17 02:47:49;;;;;;;21.05;11.77;;;24.90;93.90;;;;;;5086277;28;20217;-68
2022/10/17 02:50:15;;;;;;;35.80;17.65;;;24.90;94.00;;;;;;5096918;28;20063;-68
2022/10/17 02:53:17;;;;;;;41.08;16.92;;;24.90;93.90;;;;;;5090202;28;20069;-68
2022/10/17 02:55:52;;;;;;;29.77;15.30;;;24.90;94.30;;;;;;5019950;28;20081;-68
2022/10/17 02:58:27;;;;;;;33.40;14.17;;;24.90;94.60;;;;;;5023480;28;20093;-70
2022/10/17 03:00:54;;;;;;;30.30;16.13;;;24.90;95.10;;;;;;5021599;28;20678;-71
2022/10/17 03:03:29;;;;;;;40.45;15.10;;;24.80;95.20;;;;;;5022556;28;20083;-69
2022/10/17 03:05:56;;;;;;;25.15;13.02;;;24.80;95.10;;;;;;5023946;28;20116;-65
2022/10/17 03:08:23;;;;;;;32.75;13.57;;;24.70;95.10;;;;;;5022370;28;20529;-68
2022/10/17 03:10:49;;;;;;;26.65;13.95;;;24.70;95.30;;;;;;5021118;28;20117;-67
2022/10/17 03:13:16;;;;;;;30.48;15.77;;;24.60;95.50;;;;;;5022407;28;20135;-68
2022/10/17 03:15:43;;;;;;;42.40;16.25;;;24.60;95.80;;;;;;5022101;28;20564;-68
2022/10/17 03:18:09;;;;;;;40.55;15.48;;;24.60;96.00;;;;;;5021048;28;20577;-68
2022/10/17 03:20:36;;;;;;;28.30;14.27;;;24.50;95.90;;;;;;5022060;28;20670;-68
2022/10/17 03:23:02;;;;;;;36.45;13.93;;;24.50;96.20;;;;;;5021355;28;20070;-67
2022/10/17 03:25:29;;;;;;;34.42;13.15;;;24.50;96.50;;;;;;5023699;28;20086;-68
2022/10/17 03:28:01;;;;;;;27.83;10.52;;;24.50;96.80;;;;;;5016280;28;20092;-71
2022/10/17 03:30:28;;;;;;;36.55;9.23;;;24.50;96.90;;;;;;5021880;28;20078;-68
2022/10/17 03:32:56;;;;;;;36.05;8.75;;;24.40;97.20;;;;;;5079896;28;20089;-69
2022/10/17 03:35:22;;;;;;;19.00;7.03;;;24.40;97.60;;;;;;5087924;28;20076;-69
2022/10/17 03:37:49;;;;;;;22.08;8.00;;;24.30;98.10;;;;;;5089113;28;20091;-68
2022/10/17 03:40:15;;;;;;;23.23;8.65;;;24.20;98.70;;;;;;5087912;28;20072;-68
2022/10/17 03:42:42;;;;;;;30.02;7.90;;;24.10;99.00;;;;;;5087950;28;20099;-68
2022/10/17 03:45:09;;;;;;;31.67;7.45;;;24.10;99.10;;;;;;5089869;28;20545;-70
2022/10/17 03:47:35;;;;;;;22.15;6.05;;;24.10;99.10;;;;;;5090864;28;20072;-67
2022/10/17 03:50:01;;;;;;;15.05;6.25;;;24.00;99.20;;;;;;5088942;28;20076;-67
2022/10/17 03:52:28;;;;;;;26.38;6.60;;;24.00;99.60;;;;;;5088304;28;20077;-68
2022/10/17 03:54:54;;;;;;;19.20;6.50;;;23.90;99.70;;;;;;5087814;28;20482;-66
2022/10/17 03:57:20;;;;;;;26.52;6.63;;;23.90;99.90;;;;;;5090793;28;20175;-66
2022/10/17 03:59:47;;;;;;;26.45;7.40;;;23.90;99.90;;;;;;5088178;28;20068;-67
2022/10/17 04:02:13;;;;;;;23.92;6.72;;;23.70;99.90;;;;;;5086616;28;20948;-69
2022/10/17 04:04:39;;;;;;;53.85;20.88;;;23.60;99.90;;;;;;5092257;28;20068;-71
2022/10/17 04:07:06;;;;;;;30.75;10.35;;;23.60;99.90;;;;;;5089380;28;20530;-67
2022/10/17 04:09:32;;;;;;;25.23;9.55;;;23.70;99.90;;;;;;5088864;28;20567;-71
2022/10/17 04:11:59;;;;;;;34.50;9.23;;;23.70;99.90;;;;;;5089470;28;20142;-68
2022/10/17 04:14:25;;;;;;;31.00;10.48;;;23.60;99.90;;;;;;5088071;28;20116;-66
2022/10/17 04:16:52;;;;;;;30.20;8.52;;;23.70;99.90;;;;;;5091397;28;20064;-66
2022/10/17 04:19:18;;;;;;;32.20;8.85;;;23.70;99.90;;;;;;5091104;28;20093;-67
2022/10/17 04:21:45;;;;;;;26.90;9.13;;;23.70;99.90;;;;;;5092023;28;20548;-69
2022/10/17 04:24:12;;;;;;;33.10;10.20;;;23.50;99.90;;;;;;5079073;28;20084;-68
2022/10/17 04:26:38;;;;;;;34.53;8.90;;;23.60;99.90;;;;;;5092775;28;20414;-67
2022/10/17 04:29:04;;;;;;;33.95;7.90;;;23.50;99.90;;;;;;5088846;28;20116;-66
2022/10/17 04:31:31;;;;;;;38.50;8.27;;;23.60;99.90;;;;;;5091566;28;20072;-67
2022/10/17 04:33:57;;;;;;;39.70;9.25;;;23.50;99.90;;;;;;5090919;28;20097;-67
2022/10/17 04:36:23;;;;;;;46.40;9.93;;;23.50;99.90;;;;;;5092111;28;20436;-66
2022/10/17 04:38:50;;;;;;;45.50;9.82;;;23.50;99.90;;;;;;5091723;28;20145;-67
2022/10/17 04:41:17;;;;;;;42.65;9.30;;;23.50;99.90;;;;;;5102211;28;20095;-65
2022/10/17 04:43:45;;;;;;;36.60;8.93;;;23.50;99.90;;;;;;5096239;28;20095;-68
2022/10/17 04:46:13;;;;;;;39.00;8.73;;;23.50;99.90;;;;;;5090655;28;20103;-66
2022/10/17 04:48:40;;;;;;;37.10;9.20;;;23.40;99.90;;;;;;5097563;28;20073;-68
2022/10/17 04:51:17;;;;;;;42.20;9.27;;;23.40;99.90;;;;;;5098710;28;20133;-67
2022/10/17 04:53:44;;;;;;;46.58;10.25;;;23.30;99.90;;;;;;5096770;28;20455;-73
2022/10/17 04:56:17;;;;;;;37.83;10.40;;;23.20;99.90;;;;;;5095735;28;20125;-72
2022/10/17 04:58:45;;;;;;;34.60;9.63;;;23.30;99.90;;;;;;5097895;28;20146;-67
2022/10/17 05:01:13;;;;;;;44.35;9.95;;;23.30;99.90;;;;;;5094198;28;20167;-67
2022/10/17 05:03:40;;;;;;;48.85;10.00;;;23.30;99.90;;;;;;5098609;28;20326;-67
2022/10/17 05:06:12;;;;;;;50.97;10.77;;;23.30;99.90;;;;;;5098294;28;20064;-73
2022/10/17 05:08:38;;;;;;;31.58;10.20;;;23.30;99.90;;;;;;5091389;28;20565;-67
2022/10/17 05:11:13;;;;;;;38.33;10.30;;;23.30;99.90;;;;;;5089660;28;20100;-67
2022/10/17 05:13:40;;;;;;;41.72;10.68;;;23.30;99.90;;;;;;5090473;28;20072;-67
2022/10/17 05:16:06;;;;;;;41.80;11.25;;;23.30;99.90;;;;;;5091120;28;20119;-66
2022/10/17 05:18:33;;;;;;;47.22;12.48;;;23.30;99.90;;;;;;5090055;28;20962;-66
2022/10/17 05:20:59;;;;;;;55.30;12.80;;;23.30;99.90;;;;;;5090575;28;20072;-67
2022/10/17 05:23:25;;;;;;;62.55;13.55;;;23.30;99.90;;;;;;5090940;28;20096;-67
2022/10/17 05:25:55;;;;;;;40.65;11.48;;;23.20;99.90;;;;;;5090627;28;20064;-66
2022/10/17 05:28:22;;;;;;;44.60;11.50;;;23.20;99.90;;;;;;5088042;28;20230;-64
2022/10/17 05:30:49;;;;;;;40.50;11.23;;;23.20;99.90;;;;;;5090958;28;20437;-63
2022/10/17 05:33:15;;;;;;;47.83;13.98;;;23.20;99.90;;;;;;5091666;28;20089;-64
2022/10/17 05:35:42;;;;;;;37.88;13.93;;;23.20;99.90;;;;;;5091699;28;20077;-66
2022/10/17 05:38:08;;;;;;;51.33;15.27;;;23.10;99.90;;;;;;5096970;28;20092;-64
2022/10/17 05:40:34;;;;;;;47.28;14.65;;;23.10;99.90;;;;;;5092528;28;20109;-66
2022/10/17 05:43:01;;;;;;;45.25;15.95;;;23.10;99.90;;;;;;5095657;28;20072;-65
2022/10/17 05:45:27;;;;;;;55.28;15.65;;;23.00;99.90;;;;;;5091046;28;20061;-65
2022/10/17 05:47:53;;;;;;;47.25;17.23;;;23.00;99.90;;;;;;5089812;28;20101;-67
2022/10/17 05:50:20;;;;;;;48.85;18.08;;;23.00;99.90;;;;;;5089527;28;20085;-64
2022/10/17 05:52:47;;;;;;;58.10;19.10;;;23.00;99.90;;;;;;5090805;28;20406;-65
2022/10/17 05:55:13;;;;;;;56.58;18.70;;;23.00;99.90;;;;;;5090590;28;20107;-66
2022/10/17 05:57:40;;;;;;;47.60;18.05;;;23.00;99.90;;;;;;5090856;28;20174;-66
2022/10/17 06:00:07;;;;;;;58.90;18.25;;;23.00;99.90;;;;;;5088392;28;20435;-65
2022/10/17 06:02:33;;;;;;;56.85;18.80;;;23.00;99.90;;;;;;5090469;28;20138;-65
2022/10/17 06:05:00;;;;;;;50.28;17.50;;;22.90;99.90;;;;;;5089208;28;20175;-66
2022/10/17 06:07:26;;;;;;;62.00;17.63;;;22.90;99.90;;;;;;5089578;28;20065;-65
2022/10/17 06:09:52;;;;;;;57.08;18.80;;;22.90;99.90;;;;;;5088385;28;20069;-65
2022/10/17 06:12:19;;;;;;;56.50;18.20;;;22.90;99.90;;;;;;5089357;28;20548;-66
2022/10/17 06:14:45;;;;;;;56.78;18.45;;;22.90;99.90;;;;;;5092769;28;20197;-64
2022/10/17 06:17:11;;;;;;;56.42;19.38;;;22.90;99.90;;;;;;5095402;28;20071;-64
2022/10/17 06:19:40;;;;;;;59.55;18.63;;;22.90;99.90;;;;;;5088624;28;20187;-65
2022/10/17 06:22:07;;;;;;;49.40;17.17;;;22.90;99.90;;;;;;5088953;28;20060;-65
2022/10/17 06:24:33;;;;;;;52.35;17.55;;;22.90;99.90;;;;;;5089354;28;20159;-64
2022/10/17 06:26:59;;;;;;;62.08;18.60;;;22.80;99.90;;;;;;5093500;28;20079;-64
2022/10/17 06:29:26;;;;;;;48.63;17.10;;;22.80;99.90;;;;;;5084370;28;20084;-65
2022/10/17 06:31:53;;;;;;;50.22;17.52;;;22.80;99.90;;;;;;5087948;28;20069;-63
2022/10/17 06:34:19;;;;;;;49.78;17.48;;;22.70;99.90;;;;;;5089670;28;20488;-66
2022/10/17 06:36:46;;;;;;;49.20;18.08;;;22.60;99.90;;;;;;5089486;28;20083;-67
2022/10/17 06:39:12;;;;;;;60.35;20.67;;;22.60;99.90;;;;;;5088779;28;20088;-65
2022/10/17 06:41:43;;;;;;;54.90;19.38;;;22.60;99.90;;;;;;5088379;28;20500;-63
2022/10/17 06:44:10;;;;;;;43.83;17.10;;;22.60;99.90;;;;;;5091811;28;20071;-66
2022/10/17 06:46:38;;;;;;;48.92;18.13;;;22.60;99.90;;;;;;5089344;28;20544;-64
2022/10/17 06:49:06;;;;;;;55.65;18.30;;;22.50;99.90;;;;;;5087468;28;20149;-65
2022/10/17 06:51:35;;;;;;;53.05;18.30;;;22.50;99.90;;;;;;5087380;28;20085;-64
2022/10/17 06:54:02;;;;;;;44.88;17.27;;;22.50;99.90;;;;;;5088663;28;20751;-65
2022/10/17 06:56:29;;;;;;;52.80;17.75;;;22.40;99.90;;;;;;5091373;28;20134;-66
2022/10/17 06:58:55;;;;;;;47.95;17.85;;;22.40;99.90;;;;;;5087469;28;20101;-64
2022/10/17 07:01:22;;;;;;;45.28;17.52;;;22.40;99.90;;;;;;5091162;28;20487;-66
2022/10/17 07:03:49;;;;;;;46.58;16.30;;;22.40;99.90;;;;;;5089497;28;20096;-65
2022/10/17 07:06:16;;;;;;;44.78;15.73;;;22.40;99.90;;;;;;5087637;28;20081;-66
2022/10/17 07:08:44;;;;;;;54.20;17.10;;;22.40;99.90;;;;;;5089948;28;20077;-66
2022/10/17 07:11:12;;;;;;;45.60;15.60;;;22.30;99.90;;;;;;5088208;28;20183;-64
2022/10/17 07:13:39;;;;;;;41.45;15.88;;;22.30;99.90;;;;;;5087290;28;20151;-66
2022/10/17 07:16:06;;;;;;;41.47;14.50;;;22.20;99.90;;;;;;5087143;28;20207;-65
2022/10/17 07:18:32;;;;;;;45.72;15.63;;;22.30;99.90;;;;;;5088176;28;20093;-65
2022/10/17 07:20:58;;;;;;;43.40;15.50;;;22.30;99.90;;;;;;5096546;28;20081;-65
2022/10/17 07:23:25;;;;;;;50.95;18.02;;;22.30;99.90;;;;;;5091561;28;20065;-69
2022/10/17 07:25:58;;;;;;;51.65;18.95;;;22.30;99.90;;;;;;5087441;28;20091;-65
2022/10/17 07:28:24;;;;;;;48.58;18.08;;;22.30;99.90;;;;;;5087100;28;20073;-65
2022/10/17 07:30:50;;;;;;;46.35;19.08;;;22.30;99.90;;;;;;5083819;28;20155;-65
2022/10/17 07:33:17;;;;;;;43.25;17.98;;;22.30;99.90;;;;;;5087530;28;20080;-66
2022/10/17 07:35:43;;;;;;;42.17;16.98;;;22.30;99.90;;;;;;5090080;28;20570;-65
2022/10/17 07:38:09;;;;;;;45.00;16.85;;;22.20;99.90;;;;;;5092794;28;20092;-64
2022/10/17 07:40:36;;;;;;;46.85;16.23;;;22.20;99.90;;;;;;5088849;28;20108;-62
2022/10/17 07:43:02;;;;;;;39.50;15.80;;;22.20;99.90;;;;;;5088474;28;20072;-66
2022/10/17 07:45:29;;;;;;;39.75;15.93;;;22.10;99.90;;;;;;5087016;28;20065;-63
2022/10/17 07:47:56;;;;;;;36.80;15.38;;;22.10;99.90;;;;;;5088804;28;20104;-66
2022/10/17 07:50:24;;;;;;;39.28;16.23;;;22.10;99.90;;;;;;5088698;28;20167;-65
2022/10/17 07:52:50;;;;;;;34.25;14.48;;;22.10;99.90;;;;;;5094841;28;20087;-66
2022/10/17 07:55:17;;;;;;;29.75;15.10;;;22.10;99.90;;;;;;5094479;28;20091;-65
2022/10/17 07:57:43;;;;;;;29.67;13.60;;;22.10;99.90;;;;;;5092135;28;20097;-64
2022/10/17 08:00:10;;;;;;;32.72;14.20;;;22.10;99.90;;;;;;5092104;28;20100;-65
2022/10/17 08:02:36;;;;;;;30.63;13.63;;;22.00;99.90;;;;;;5091745;28;20094;-66
2022/10/17 08:05:03;;;;;;;33.15;15.02;;;22.00;99.90;;;;;;5090528;28;20437;-66
2022/10/17 08:07:30;;;;;;;25.38;13.18;;;22.00;99.90;;;;;;5091343;28;20068;-65
2022/10/17 08:09:56;;;;;;;29.40;13.85;;;22.00;99.90;;;;;;5090260;28;20091;-63
2022/10/17 08:12:24;;;;;;;27.95;13.68;;;22.00;99.90;;;;;;5091199;28;20080;-65
2022/10/17 08:14:51;;;;;;;24.38;14.52;;;22.00;99.90;;;;;;5089488;28;20108;-66
2022/10/17 08:17:17;;;;;;;27.02;14.70;;;22.00;99.90;;;;;;5091475;28;20111;-65
2022/10/17 08:19:43;;;;;;;25.88;14.23;;;21.90;99.90;;;;;;5097312;28;20602;-65
2022/10/17 08:22:10;;;;;;;25.15;14.50;;;21.90;99.90;;;;;;5091049;28;20518;-65
2022/10/17 08:24:36;;;;;;;24.58;14.40;;;21.80;99.90;;;;;;5091097;28;20124;-66
2022/10/17 08:27:10;;;;;;;24.50;14.88;;;21.80;99.90;;;;;;5091462;28;20081;-65
2022/10/17 08:29:37;;;;;;;22.50;15.13;;;21.80;99.90;;;;;;5093658;28;20555;-66
2022/10/17 08:32:05;;;;;;;21.52;13.30;;;21.80;99.90;;;;;;5087174;28;20102;-65
2022/10/17 08:34:31;;;;;;;29.33;14.52;;;21.80;99.90;;;;;;5090704;28;20546;-65
2022/10/17 08:36:57;;;;;;;24.20;13.98;;;21.70;99.90;;;;;;5091354;28;20100;-67
2022/10/17 08:39:24;;;;;;;21.33;13.80;;;21.70;99.90;;;;;;5091885;28;20099;-65
2022/10/17 08:42:15;;;;;;;22.13;13.52;;;21.70;99.90;;;;;;5089462;28;20080;-65
2022/10/17 08:45:11;;;;;;;20.65;14.70;;;21.70;99.90;;;;;;5090471;28;20077;-64
2022/10/17 08:47:49;;;;;;;27.98;14.02;;;21.70;99.90;;;;;;5093201;28;20065;-66
2022/10/17 08:50:36;;;;;;;20.00;13.32;;;21.70;99.90;;;;;;5090939;28;20171;-67
2022/10/17 08:53:18;;;;;;;24.10;14.60;;;21.70;99.90;;;;;;5099471;28;20096;-64
2022/10/17 08:55:50;;;;;;;19.55;14.07;;;21.60;99.90;;;;;;5093641;28;20679;-66
2022/10/17 08:58:31;;;;;;;26.38;15.00;;;21.60;99.90;;;;;;5091958;28;20096;-65
2022/10/17 09:01:25;;;;;;;23.05;14.63;;;21.60;99.90;;;;;;5097349;28;20141;-64
2022/10/17 09:04:29;;;;;;;22.77;14.30;;;21.60;99.90;;;;;;5090357;28;20065;-64
2022/10/17 09:07:14;;;;;;;25.60;13.43;;;21.70;99.90;;;;;;5089100;28;20060;-64
2022/10/17 09:09:43;;;;;;;21.45;14.40;;;21.60;99.90;;;;;;5088724;28;20130;-64
2022/10/17 09:12:25;;;;;;;19.83;12.90;;;21.60;99.90;;;;;;5089986;28;20122;-64
2022/10/17 09:15:21;;;;;;;22.05;13.65;;;21.60;99.90;;;;;;5089813;28;20593;-65
2022/10/17 09:17:49;;;;;;;18.63;11.82;;;21.60;99.90;;;;;;5072671;28;20105;-64
2022/10/17 09:20:20;;;;;;;22.75;12.63;;;21.50;99.90;;;;;;5089688;28;20072;-66
2022/10/17 09:23:15;;;;;;;23.70;14.52;;;21.50;99.90;;;;;;5087556;28;20061;-66
2022/10/17 09:25:47;;;;;;;22.27;15.32;;;21.40;99.90;;;;;;5087992;28;20097;-65
2022/10/17 09:28:34;;;;;;;23.77;14.02;;;21.30;99.90;;;;;;5090043;28;20068;-66
2022/10/17 09:31:01;;;;;;;19.30;11.90;;;21.30;99.90;;;;;;5088398;28;20148;-66
2022/10/17 09:33:34;;;;;;;18.58;11.88;;;21.30;99.90;;;;;;5090803;28;20072;-66
2022/10/17 09:36:04;;;;;;;19.65;12.40;;;21.30;99.90;;;;;;5091057;28;20079;-65
2022/10/17 09:38:39;;;;;;;18.90;12.68;;;21.30;99.90;;;;;;5089386;28;20125;-64
2022/10/17 09:41:14;;;;;;;18.48;13.52;;;21.20;99.90;;;;;;5088344;28;20076;-65
2022/10/17 09:43:40;;;;;;;17.27;12.52;;;21.20;99.90;;;;;;5088833;28;20080;-64
2022/10/17 09:46:29;;;;;;;13.98;10.95;;;21.20;99.90;;;;;;5089615;28;20079;-65
2022/10/17 09:49:02;;;;;;;13.85;12.02;;;21.20;99.90;;;;;;5087550;28;20064;-65
2022/10/17 09:51:30;;;;;;;17.63;12.13;;;21.20;99.90;;;;;;5089639;28;20167;-65
2022/10/17 09:54:02;;;;;;;19.13;11.05;;;21.10;99.90;;;;;;5093657;28;20081;-67
2022/10/17 09:56:28;;;;;;;12.48;8.95;;;21.10;99.90;;;;;;5089959;28;20108;-66
2022/10/17 09:58:57;;;;;;;10.43;8.20;;;21.00;99.90;;;;;;5090622;28;20092;-65
2022/10/17 10:01:29;;;;;;;9.77;7.07;;;21.10;99.90;;;;;;5088802;28;20092;-64
2022/10/17 10:04:08;;;;;;;11.60;6.80;;;21.10;99.90;;;;;;5088980;28;20142;-65
2022/10/17 10:06:35;;;;;;;11.48;7.30;;;21.10;99.90;;;;;;5088133;28;20171;-65
2022/10/17 10:09:04;;;;;;;12.23;6.97;;;21.00;99.90;;;;;;5087812;28;20065;-66
2022/10/17 10:11:49;;;;;;;11.18;6.65;;;21.00;99.90;;;;;;5089468;28;20080;-65
2022/10/17 10:14:27;;;;;;;9.32;5.80;;;21.00;99.90;;;;;;5093280;28;20469;-66
2022/10/17 10:16:54;;;;;;;7.80;4.82;;;21.00;99.90;;;;;;5089462;28;20107;-66
2022/10/17 10:19:48;;;;;;;8.82;4.88;;;21.10;99.90;;;;;;5088279;28;20112;-64
2022/10/17 10:22:16;;;;;;;11.63;5.28;;;21.10;99.90;;;;;;5088385;28;20068;-66
2022/10/17 10:24:43;;;;;;;11.20;6.35;;;21.10;99.90;;;;;;5087401;28;20549;-65
2022/10/17 10:27:15;;;;;;;11.93;6.68;;;21.10;99.90;;;;;;5088055;28;20076;-64
2022/10/17 10:29:52;;;;;;;8.80;5.95;;;21.10;99.90;;;;;;5087767;28;20117;-65
2022/10/17 10:32:18;;;;;;;;;;;21.10;99.90;;;;;;5084374;28;20080;-66
2022/10/17 10:34:54;;;;;;;8.05;5.90;;;20.90;99.90;;;;;;5088863;28;20009;-66
2022/10/17 10:37:34;;;;;;;8.70;5.75;;;20.90;99.90;;;;;;5088745;28;20072;-65
2022/10/17 10:40:06;;;;;;;12.70;6.43;;;20.90;99.90;;;;;;5089558;28;20080;-64
2022/10/17 10:42:39;;;;;;;12.35;6.07;;;20.90;99.90;;;;;;5088980;28;20076;-66
2022/10/17 10:45:22;;;;;;;11.32;5.50;;;21.00;99.90;;;;;;5097486;28;20072;-63
2022/10/17 10:48:00;;;;;;;10.75;5.63;;;21.00;99.90;;;;;;5092940;28;20073;-63
2022/10/17 10:50:44;;;;;;;10.75;6.40;;;21.00;99.90;;;;;;5089118;28;20210;-66
2022/10/17 10:53:19;;;;;;;8.15;6.47;;;21.00;99.90;;;;;;5087723;28;20083;-65
2022/10/17 10:56:08;;;;;;;11.82;6.40;;;20.90;99.90;;;;;;5092408;28;20071;-65
2022/10/17 10:58:52;;;;;;;10.80;6.20;;;20.90;99.90;;;;;;5088395;28;20089;-66
2022/10/17 11:01:21;;;;;;;10.57;5.78;;;20.80;99.90;;;;;;5089167;28;20553;-66
2022/10/17 11:04:24;;;;;;;12.05;6.10;;;20.80;99.90;;;;;;5088625;28;20095;-66
2022/10/17 11:06:57;;;;;;;12.05;6.30;;;20.80;99.90;;;;;;5087704;28;20131;-66
2022/10/17 11:09:42;;;;;;;15.35;6.13;;;20.80;99.90;;;;;;5087270;28;20096;-64
2022/10/17 11:12:37;;;;;;;10.23;5.75;;;20.80;99.90;;;;;;5087595;28;20133;-66
2022/10/17 11:15:41;;;;;;;13.93;6.32;;;20.70;99.90;;;;;;5062226;28;20418;-65
2022/10/17 11:18:31;;;;;;;13.32;5.88;;;20.70;99.90;;;;;;5086935;28;20098;-66
2022/10/17 11:21:14;;;;;;;11.73;5.72;;;20.70;99.90;;;;;;5059176;28;20169;-66
2022/10/17 11:23:50;;;;;;;11.18;6.38;;;20.70;99.90;;;;;;5088289;28;20077;-67
2022/10/17 11:26:26;;;;;;;14.18;6.22;;;20.60;99.90;;;;;;5089795;28;20568;-66
2022/10/17 11:28:54;;;;;;;12.02;5.43;;;20.60;99.90;;;;;;5091682;28;20163;-66
2022/10/17 11:31:24;;;;;;;12.57;5.47;;;20.70;99.90;;;;;;5092071;28;20118;-66
2022/10/17 11:33:56;;;;;;;15.30;5.35;;;20.70;99.90;;;;;;5086218;28;20159;-65
2022/10/17 11:36:31;;;;;;;17.40;5.32;;;20.70;99.90;;;;;;5091412;28;20073;-64
2022/10/17 11:39:02;;;;;;;9.50;5.35;;;20.70;99.90;;;;;;5091298;28;20084;-65
2022/10/17 11:41:44;;;;;;;14.00;5.53;;;20.70;99.90;;;;;;5091816;28;20088;-65
2022/10/17 11:44:35;;;;;;;15.95;5.05;;;20.70;99.90;;;;;;5091476;28;20151;-65
2022/10/17 11:47:37;;;;;;;13.50;4.68;;;20.70;99.90;;;;;;5091544;28;20076;-65
2022/10/17 11:50:21;;;;;;;12.85;5.68;;;20.70;99.90;;;;;;5066163;28;20170;-65
2022/10/17 11:53:02;;;;;;;12.15;5.57;;;20.70;99.90;;;;;;5070190;28;20085;-64
2022/10/17 11:55:31;;;;;;;11.02;4.88;;;20.60;99.90;;;;;;5068260;28;20160;-65
2022/10/17 11:58:09;;;;;;;8.90;4.70;;;20.60;99.90;;;;;;5066969;28;20138;-65
2022/10/17 12:00:38;;;;;;;12.00;6.07;;;20.60;99.90;;;;;;5066674;28;20097;-64
2022/10/17 12:03:52;;;;;;;12.82;5.38;;;20.50;99.90;;;;;;5051605;28;20484;-65
2022/10/17 12:06:42;;;;;;;15.82;5.60;;;20.50;99.90;;;;;;4977964;28;20126;-65
2022/10/17 12:09:25;;;;;;;9.77;5.13;;;20.50;99.90;;;;;;4974420;28;20285;-64
2022/10/17 12:11:58;;;;;;;8.38;5.15;;;20.50;99.90;;;;;;4974717;28;20182;-65
2022/10/17 12:14:42;;;;;;;10.32;4.80;;;20.40;99.90;;;;;;4976641;28;20111;-65
2022/10/17 12:17:24;;;;;;;17.42;5.55;;;20.40;99.90;;;;;;4975599;28;20075;-65
2022/10/17 12:19:51;;;;;;;16.52;5.13;;;20.40;99.90;;;;;;4975588;28;20114;-65
2022/10/17 12:22:24;;;;;;;12.25;4.45;;;20.40;99.90;;;;;;4976828;28;20110;-64
2022/10/17 12:24:55;;;;;;;9.18;4.65;;;20.40;99.90;;;;;;4980526;28;20562;-65
2022/10/17 12:27:28;;;;;;;12.27;4.40;;;20.40;99.90;;;;;;4990747;28;20086;-64
2022/10/17 12:30:14;;;;;;;13.07;4.43;;;20.40;99.90;;;;;;4989625;28;20102;-65
2022/10/17 12:33:02;;;;;;;12.70;4.85;;;20.40;99.90;;;;;;4990788;28;20083;-65
2022/10/17 12:35:30;;;;;;;15.63;5.03;;;20.40;99.90;;;;;;4988246;28;20089;-66
2022/10/17 12:38:13;;;;;;;14.50;5.40;;;20.40;99.90;;;;;;4992013;28;20102;-67
2022/10/17 12:40:42;;;;;;;16.98;4.53;;;20.40;99.90;;;;;;5063661;28;20123;-66
2022/10/17 12:43:14;;;;;;;18.58;7.57;;;20.30;99.90;;;;;;5091269;28;20072;-66
2022/10/17 12:46:00;;;;;;;17.95;5.45;;;20.20;99.90;;;;;;5090808;28;20487;-66
2022/10/17 12:48:33;;;;;;;13.95;4.47;;;20.30;99.90;;;;;;5091984;28;20102;-64
2022/10/17 12:51:20;;;;;;;10.70;5.28;;;20.30;99.90;;;;;;5089629;28;20504;-65
2022/10/17 12:53:46;;;;;;;12.48;4.78;;;20.30;99.90;;;;;;5090030;28;20508;-64
2022/10/17 12:56:13;;;;;;;;;;;20.30;99.90;;;;;;5089349;28;20095;-64
2022/10/17 12:58:46;;;;;;;17.35;5.70;;;20.20;99.90;;;;;;5091159;28;19973;-66
2022/10/17 13:01:27;;;;;;;15.23;5.97;;;20.20;99.90;;;;;;5089837;28;20092;-64
2022/10/17 13:03:55;;;;;;;10.13;5.95;;;20.20;99.90;;;;;;5090851;28;20167;-67